Terminal Aerodrome Forecast
Issued by NWS

Home | Current Version | Previous Version | Text Only | Print | Product List | Glossary On
Versions: 1 2 3 4 5 6 7 8 9 10 11 12 13 14 15
000
FTUS41 KCAR 030328 AAA
TAFBHB
TAF AMD
KBHB 030328Z 0303/0324 31017G30KT P6SM SCT050
     FM031000 30012KT P6SM SKC
     FM032200 18008KT P6SM SCT070 BKN120 OVC180
      AMD LTD TO CLD VIS AND WIND=

USA.gov is the U.S. government's official web portal to all federal, state and local government web resources and services.